• Join FlightAware (Why Join?)
  • Login
  • US Flag 
04:10AM EST


 

Airport Tracker/Info


-or-


 

Live Flight TrackerFlight Track Log ✈ THY2466 ✈ 13-Sep-2013 ✈ LTBA / IST - LTAF / ADA

Flight Track Log - Related Links

Times and Time Zones

All times are in EDT time to prevent confusion due to time zone crossing. See the THY2466 flight status page for this flight to view local times or setup timezone preferences in your user account.

Time Position Orientation Groundspeed Altitude Reporting Facility
EDT Latitude Longitude Course Direction KTS MPH feet Rate Location/Type
10:00AM 40.2713 30.0620 126° Southeast  Level Estimated
10:01AM 40.2065 30.1736 127° Southeast  Level Estimated
10:02AM 40.1415 30.2849 127° Southeast  Level Estimated
10:03AM 40.0765 30.3960 127° Southeast  Level Estimated
10:04AM 40.0114 30.5068 127° Southeast  Level Estimated
10:05AM 39.9462 30.6175 128° Southeast  Level Estimated
10:06AM 39.8809 30.7280 128° Southeast  Level Estimated
10:07AM 39.8154 30.8382 128° Southeast  Level Estimated
10:08AM 39.7499 30.9483 128° Southeast  Level Estimated
10:09AM 39.6842 31.0581 128° Southeast  Level Estimated
10:10AM 39.6185 31.1677 128° Southeast  Level Estimated
10:11AM 39.5526 31.2771 128° Southeast  Level Estimated
10:12AM 39.4867 31.3863 128° Southeast  Level Estimated
10:13AM 39.4206 31.4953 128° Southeast  Level Estimated
10:14AM 39.3545 31.6041 128° Southeast  Level Estimated
10:15AM 39.2882 31.7127 128° Southeast  Level Estimated
10:16AM 39.2219 31.8211 128° Southeast  Level Estimated
10:17AM 39.1554 31.9292 128° Southeast  Level Estimated
10:18AM 39.0888 32.0372 128° Southeast  Level Estimated
10:19AM 39.0222 32.1450 129° Southeast  Level Estimated
10:20AM 38.9554 32.2525 129° Southeast  Level Estimated
10:21AM 38.8886 32.3599 129° Southeast  Level Estimated
10:22AM 38.8216 32.4671 129° Southeast  Level Estimated
10:23AM 38.7546 32.5740 129° Southeast  Level Estimated
10:24AM 38.6874 32.6808 129° Southeast  Level Estimated
10:25AM 38.6202 32.7873 129° Southeast  Level Estimated
10:26AM 38.5528 32.8937 129° Southeast  Level Estimated
10:27AM 38.4854 32.9999 129° Southeast  Level Estimated
10:28AM 38.4179 33.1058 129° Southeast  Level Estimated
10:29AM 38.3502 33.2116 129° Southeast  Level Estimated
10:30AM 38.2825 33.3171 129° Southeast  Level Estimated
10:31AM 38.2147 33.4225 129° Southeast  Level Estimated
10:32AM 38.1468 33.5277 129° Southeast  Level Estimated
10:33AM 38.0788 33.6326 129° Southeast  Level Estimated
10:34AM 38.0107 33.7374 129° Southeast  Level Estimated
10:35AM 37.9425 33.8420 130° Southeast  Level Estimated
10:36AM 37.8742 33.9464 130° Southeast  Level Estimated
10:37AM 37.8058 34.0506 130° Southeast  Level Estimated
10:38AM 37.7374 34.1546 130° Southeast  Level Estimated
10:39AM 37.6688 34.2584 130° Southeast  Level Estimated
10:40AM 37.6002 34.3620 130° Southeast  Level Estimated
10:41AM 37.5314 34.4655 130° Southeast  Level Estimated
10:42AM 37.4626 34.5687 130° Southeast  Level Estimated
10:43AM 37.3937 34.6717 130° Southeast  Level Estimated
10:44AM 37.3246 34.7746 130° Southeast  Level Estimated
10:45AM 37.2556 34.8773 130° Southeast  Level Estimated
10:46AM 37.1864 34.9798 130° Southeast  Level Estimated
10:47AM 37.1171 35.0821 130° Southeast  Level Estimated
10:48AM 37.0477 35.1842 130° Southeast  Level Estimated
10:49AM 36.9822 35.2804 130° Southeast  Level Estimated
10:50AM 36.9822 35.2804 202° Southwest  Level Estimated
10:51AM 36.9822 35.2804 202° Southwest  Level Estimated
10:52AM 36.9822 35.2804 202° Southwest  Level Estimated
10:53AM 36.9822 35.2804 202° Southwest  Level Estimated
10:54AM 36.9822 35.2804 202° Southwest  Level Estimated
10:55AM 36.9822 35.2804 202° Southwest  Level Estimated
10:56AM 36.9822 35.2804 202° Southwest  Level Estimated
10:57AM 36.9822 35.2804 202° Southwest  Level Estimated
10:58AM 36.9822 35.2804 202° Southwest  Level Estimated
10:59AM 36.9822 35.2804 202° Southwest  Level Estimated
11:00AM 36.9822 35.2804 202° Southwest  Level Estimated
11:01AM 36.9822 35.2804 202° Southwest  Level Estimated
11:02AM 36.9822 35.2804 202° Southwest  Level Estimated
11:03AM 36.9822 35.2804 202° Southwest  Level Estimated
11:04AM 36.9822 35.2804 202° Southwest  Level Estimated
11:05AM 36.9822 35.2804 202° Southwest  Level Estimated